createdAt,value
2022-11-19T07:14:20.182Z,96267.28
2022-11-19T07:16:23.303Z,96265.69
2022-11-19T07:18:26.425Z,96271.41
2022-11-19T07:20:29.193Z,96273.09
2022-11-19T07:22:32.296Z,96274.59
2022-11-19T07:24:35.124Z,96281.66
2022-11-19T07:26:38.761Z,96278.28
2022-11-19T07:28:41.839Z,96278.41
2022-11-19T07:30:46.023Z,96281.44
2022-11-19T07:32:48.671Z,96284.47
2022-11-19T07:34:51.369Z,96287.28
2022-11-19T07:36:54.292Z,96289.47
2022-11-19T07:38:57.057Z,96283.53
2022-11-19T07:40:59.728Z,96297.50
2022-11-19T07:43:01.400Z,96296.28
2022-11-19T07:45:04.698Z,96292.38
2022-11-19T07:47:09.703Z,96297.25
2022-11-19T07:49:12.734Z,96294.59
2022-11-19T07:51:15.550Z,96300.28
2022-11-19T07:53:18.018Z,96295.56
2022-11-19T07:55:20.738Z,96295.34
2022-11-19T07:57:29.896Z,96299.41
2022-11-19T07:59:33.077Z,96294.66
2022-11-19T08:01:35.910Z,96294.44
2022-11-19T08:03:42.563Z,96304.03
2022-11-19T08:05:47.224Z,96299.53
2022-11-19T08:07:49.890Z,96299.53
2022-11-19T08:09:52.685Z,96300.56
2022-11-19T08:11:55.470Z,96298.72
2022-11-19T08:13:59.834Z,96298.72
2022-11-19T08:16:03.462Z,96294.44
2022-11-19T08:18:15.355Z,96300.56
2022-11-19T08:20:19.601Z,96300.66
2022-11-19T08:22:22.446Z,96295.78
2022-11-19T08:24:25.431Z,96296.81
2022-11-19T08:26:28.331Z,96299.53
2022-11-19T08:28:31.974Z,96297.47
2022-11-19T08:30:34.913Z,96288.47
2022-11-19T08:32:37.730Z,96290.69
2022-11-19T08:34:40.548Z,96280.69
2022-11-19T08:36:45.073Z,96285.53
2022-11-19T08:38:48.013Z,96287.75
2022-11-19T08:40:53.443Z,96284.88
2022-11-19T08:43:00.867Z,96286.25
2022-11-19T08:45:03.689Z,96293.00
2022-11-19T08:47:06.676Z,96289.06
2022-11-19T08:49:09.586Z,96295.53
2022-11-19T08:51:14.753Z,96296.13
2022-11-19T08:53:18.821Z,96287.75
2022-11-19T08:55:21.570Z,96285.09
2022-11-19T08:57:24.498Z,96288.31
2022-11-19T08:59:27.482Z,96292.00
2022-11-19T09:01:30.554Z,96290.97
2022-11-19T09:03:33.426Z,96289.34
2022-11-19T09:05:36.224Z,96288.91
2022-11-19T09:07:38.974Z,96295.03
2022-11-19T09:09:43.134Z,96291.09
2022-11-19T09:11:45.878Z,96293.75
2022-11-19T09:13:49.123Z,96298.03
2022-11-19T09:15:52.764Z,96288.03
2022-11-19T09:17:55.469Z,96296.00
2022-11-19T09:19:58.040Z,96291.25
2022-11-19T09:22:00.764Z,96302.47
2022-11-19T09:24:03.658Z,96293.34
2022-11-19T09:26:12.092Z,96299.66
2022-11-19T09:28:14.796Z,96295.75
2022-11-19T09:30:17.713Z,96297.97
2022-11-19T09:32:25.177Z,96294.84
2022-11-19T09:34:28.209Z,96299.94
2022-11-19T09:36:31.109Z,96297.28
2022-11-19T09:38:35.183Z,96294.63
2022-11-19T09:40:37.895Z,96303.19
2022-11-19T09:42:50.792Z,96307.47
2022-11-19T09:45:19.725Z,96297.88
2022-11-19T09:47:34.038Z,96295.22
2022-11-19T09:49:39.876Z,96302.59
2022-11-19T09:51:47.369Z,96299.13
2022-11-19T09:53:55.640Z,96302.59
2022-11-19T09:55:59.317Z,96304.81
2022-11-19T09:58:07.281Z,96292.34
2022-11-19T10:00:14.522Z,96304.38
2022-11-19T10:02:19.198Z,96301.47
2022-11-19T10:04:24.226Z,96304.94
2022-11-19T10:06:31.567Z,96313.50
2022-11-19T10:08:49.925Z,96299.63
2022-11-19T10:11:02.492Z,96301.25
2022-11-19T10:13:20.205Z,96305.41
2022-11-19T10:15:34.519Z,96300.53
2022-11-19T10:17:51.841Z,96300.53
2022-11-19T10:20:11.978Z,96307.47
2022-11-19T10:22:22.868Z,96300.91
2022-11-19T10:24:35.486Z,96295.94
2022-11-19T10:26:41.465Z,96287.72
2022-11-19T10:28:53.410Z,96294.47
2022-11-19T10:31:00.035Z,96295.28
2022-11-19T10:33:08.550Z,96283.59
2022-11-19T10:35:18.084Z,96289.22
2022-11-19T10:37:23.471Z,96288.66
2022-11-19T10:39:32.328Z,96288.41
2022-11-19T10:41:39.183Z,96291.88
2022-11-19T10:43:48.078Z,96290.38
2022-11-19T10:45:52.166Z,96294.47
2022-11-19T10:48:07.502Z,96293.44
2022-11-19T10:50:18.291Z,96295.63
2022-11-19T10:52:28.286Z,96295.63
2022-11-19T10:54:32.406Z,96286.03
2022-11-19T10:56:39.999Z,96295.03
2022-11-19T10:58:48.284Z,96294.25
2022-11-19T11:00:54.848Z,96295.47
2022-11-19T11:03:02.968Z,96281.59
2022-11-19T11:05:12.568Z,96287.97
2022-11-19T11:07:15.520Z,96285.75
2022-11-19T11:09:30.633Z,96286.81
2022-11-19T11:11:48.559Z,96281.03
2022-11-19T11:14:09.393Z,96276.28
2022-11-19T11:16:16.776Z,96270.97
2022-11-19T11:18:20.410Z,96275.25
2022-11-19T11:20:27.195Z,96275.88
2022-11-19T11:22:30.506Z,96272.97
2022-11-19T11:24:35.920Z,96269.50
2022-11-19T11:26:39.443Z,96275.41
2022-11-19T11:28:55.866Z,96266.75
2022-11-19T11:31:00.807Z,96265.28
2022-11-19T11:33:27.135Z,96269.56
2022-11-19T11:35:32.851Z,96265.84
2022-11-19T11:37:36.167Z,96271.75
2022-11-19T11:39:43.917Z,96260.06
2022-11-19T11:42:05.349Z,96262.50
2022-11-19T11:44:19.422Z,96259.03
2022-11-19T11:46:22.750Z,96265.97
2022-11-19T11:48:30.200Z,96260.88
2022-11-19T11:50:33.006Z,96263.31
2022-11-19T11:52:40.908Z,96256.59
2022-11-19T11:55:01.342Z,96260.31
2022-11-19T11:57:18.345Z,96257.88
2022-11-19T11:59:29.294Z,96263.44
2022-11-19T12:01:32.080Z,96261.81
2022-11-19T12:03:49.347Z,96249.53
2022-11-19T12:06:12.129Z,96252.19
2022-11-19T12:08:27.366Z,96251.75
2022-11-19T12:10:40.485Z,96250.72
2022-11-19T12:12:50.707Z,96244.38
2022-11-19T12:14:59.811Z,96244.47
2022-11-19T12:17:18.254Z,96241.59
2022-11-19T12:19:42.782Z,96245.09
2022-11-19T12:21:57.386Z,96241.25
2022-11-19T12:24:16.648Z,96242.06
2022-11-19T12:26:27.718Z,96239.16
2022-11-19T12:28:43.086Z,96237.78
2022-11-19T12:30:55.566Z,96243.25
2022-11-19T12:33:17.778Z,96245.66
2022-11-19T12:35:37.313Z,96245.66
2022-11-19T12:37:55.741Z,96246.47
2022-11-19T12:40:10.073Z,96249.69
2022-11-19T12:42:30.810Z,96244.72
2022-11-19T12:44:48.433Z,96242.66
2022-11-19T12:46:57.517Z,96245.44
2022-11-19T12:49:38.928Z,96248.09
2022-11-19T12:51:53.254Z,96246.50
2022-11-19T12:54:15.198Z,96247.97
2022-11-19T12:56:33.971Z,96253.28
2022-11-19T12:58:48.895Z,96251.66
2022-11-19T13:00:56.669Z,96246.34
2022-11-19T13:03:11.393Z,96247.38
2022-11-19T13:05:18.404Z,96243.69
2022-11-19T13:07:26.415Z,96247.16
2022-11-19T13:09:36.810Z,96253.50
2022-11-19T13:11:44.328Z,96256.97
2022-11-19T13:13:52.242Z,96244.50
2022-11-19T13:16:00.666Z,96247.53
2022-11-19T13:18:09.660Z,96250.75
2022-11-19T13:20:19.397Z,96250.75
2022-11-19T13:22:30.252Z,96244.06
2022-11-19T13:24:36.397Z,96240.59
2022-11-19T13:26:39.713Z,96247.28
2022-11-19T13:28:48.083Z,96245.44
2022-11-19T13:30:54.262Z,96243.38
2022-11-19T13:33:04.515Z,96243.38
2022-11-19T13:35:17.432Z,96243.84
2022-11-19T13:37:34.614Z,96244.28
2022-11-19T13:39:40.902Z,96238.38
2022-11-19T13:42:03.602Z,96239.41
2022-11-19T13:44:24.472Z,96239.78
2022-11-19T13:46:34.246Z,96241.63
2022-11-19T13:48:42.193Z,96245.31
2022-11-19T13:50:48.970Z,96237.22
2022-11-19T13:53:00.787Z,96247.13
2022-11-19T13:55:03.793Z,96239.63
2022-11-19T13:57:08.840Z,96231.88
2022-11-19T13:59:27.361Z,96235.94
2022-11-19T14:02:05.556Z,96235.47
2022-11-19T14:04:27.450Z,96226.47
2022-11-19T14:06:40.364Z,96236.88
2022-11-19T14:09:00.936Z,96235.38
2022-11-19T14:11:21.017Z,96231.69
2022-11-19T14:13:43.203Z,96234.09
2022-11-19T14:16:15.184Z,96228.69
2022-11-19T14:18:42.942Z,96248.78
2022-11-19T14:21:04.627Z,96240.91
2022-11-19T14:23:26.649Z,96248.91
2022-11-19T14:26:02.870Z,96250.03
2022-11-19T14:28:38.260Z,96258.25
2022-11-19T14:31:02.922Z,96253.63
2022-11-19T14:33:57.621Z,96253.41
2022-11-19T14:36:00.632Z,96248.91
2022-11-19T14:38:25.435Z,96254.22
2022-11-19T14:40:30.482Z,96245.19
2022-11-19T14:42:54.660Z,96257.44
2022-11-19T14:45:19.956Z,96255.38
2022-11-19T14:47:35.224Z,96259.63
2022-11-19T14:49:38.923Z,96259.63
2022-11-19T14:51:42.693Z,96262.31
2022-11-19T14:53:50.525Z,96264.53
2022-11-19T14:55:54.865Z,96267.19
2022-11-19T14:58:02.621Z,96274.13
2022-11-19T15:00:08.941Z,96266.13
2022-11-19T15:02:25.186Z,96268.00
2022-11-19T15:04:34.556Z,96270.88
2022-11-19T15:06:39.093Z,96276.19
2022-11-19T15:08:48.779Z,96277.19
2022-11-19T15:11:05.856Z,96272.13
2022-11-19T15:13:34.540Z,96282.53
2022-11-19T15:15:42.480Z,96278.25
2022-11-19T15:17:46.697Z,96284.03
2022-11-19T15:20:02.204Z,96279.03
2022-11-19T15:22:33.645Z,96281.41
2022-11-19T15:24:57.198Z,96288.38
2022-11-19T15:27:11.966Z,96291.63
2022-11-19T15:29:23.337Z,96297.28
2022-11-19T15:31:48.472Z,96286.72
2022-11-19T15:34:24.683Z,96292.84
2022-11-19T15:36:33.406Z,96293.44
2022-11-19T15:38:40.752Z,96295.47
2022-11-19T15:40:44.360Z,96293.44
2022-11-19T15:42:52.984Z,96295.03
2022-11-19T15:45:02.959Z,96297.69
2022-11-19T15:47:12.471Z,96304.47
2022-11-19T15:49:21.946Z,96296.84
2022-11-19T15:51:25.135Z,96295.34
2022-11-19T15:53:28.548Z,96302.97
2022-11-19T15:55:32.662Z,96295.44
2022-11-19T15:57:40.938Z,96301.53
2022-11-19T15:59:45.773Z,96307.53
2022-11-19T16:02:01.003Z,96300.25
2022-11-19T16:04:07.440Z,96308.47
2022-11-19T16:06:17.059Z,96303.50
2022-11-19T16:08:19.813Z,96310.44
2022-11-19T16:10:29.959Z,96312.63
2022-11-19T16:12:50.315Z,96315.28
2022-11-19T16:15:11.693Z,96316.09
2022-11-19T16:17:43.167Z,96318.53
2022-11-19T16:20:02.245Z,96320.59
2022-11-19T16:22:06.610Z,96324.97
2022-11-19T16:24:32.192Z,96326.97
2022-11-19T16:26:38.158Z,96321.75
2022-11-19T16:28:40.903Z,96326.69
2022-11-19T16:30:47.197Z,96337.88
2022-11-19T16:32:51.851Z,96333.63
2022-11-19T16:35:12.429Z,96340.06
2022-11-19T16:37:17.570Z,96340.78
2022-11-19T16:39:24.265Z,96350.50
2022-11-19T16:41:44.802Z,96349.56
2022-11-19T16:43:49.458Z,96350.44
2022-11-19T16:45:52.352Z,96351.25
2022-11-19T16:47:58.554Z,96348.22
2022-11-19T16:50:03.918Z,96350.69
2022-11-19T16:52:07.641Z,96347.88
2022-11-19T16:54:11.775Z,96348.91
2022-11-19T16:56:17.073Z,96350.16
2022-11-19T16:58:26.309Z,96358.34
2022-11-19T17:00:32.999Z,96353.03
2022-11-19T17:02:40.549Z,96359.75
2022-11-19T17:04:49.392Z,96355.06
2022-11-19T17:06:52.289Z,96352.19
2022-11-19T17:08:57.659Z,96359.97
2022-11-19T17:11:36.406Z,96360.13
2022-11-19T17:13:39.403Z,96357.72
2022-11-19T17:15:48.719Z,96370.59
2022-11-19T17:17:52.657Z,96368.16
2022-11-19T17:19:57.476Z,96364.34
2022-11-19T17:22:02.328Z,96363.69
2022-11-19T17:24:05.884Z,96373.00
2022-11-19T17:26:09.427Z,96377.06
2022-11-19T17:28:19.629Z,96378.53
2022-11-19T17:30:25.928Z,96387.50
2022-11-19T17:32:34.606Z,96386.72
2022-11-19T17:34:45.959Z,96397.53
2022-11-19T17:36:50.276Z,96389.38
2022-11-19T17:38:53.594Z,96395.50
2022-11-19T17:40:57.941Z,96396.16
2022-11-19T17:43:18.860Z,96387.03
2022-11-19T17:45:21.631Z,96390.50
2022-11-19T17:47:24.653Z,96398.84
2022-11-19T17:49:27.626Z,96400.91
2022-11-19T17:51:30.399Z,96411.88
2022-11-19T17:53:34.518Z,96404.56
2022-11-19T17:55:37.798Z,96414.53
2022-11-19T17:57:42.755Z,96414.16
2022-11-19T17:59:45.859Z,96409.28
2022-11-19T18:01:48.995Z,96418.25
2022-11-19T18:03:51.847Z,96410.75
2022-11-19T18:05:54.501Z,96412.97
2022-11-19T18:07:57.750Z,96411.94
2022-11-19T18:10:01.815Z,96414.59
2022-11-19T18:12:05.844Z,96416.59
2022-11-19T18:14:10.003Z,96423.91
2022-11-19T18:16:17.374Z,96416.19
2022-11-19T18:18:20.108Z,96422.06
2022-11-19T18:20:22.819Z,96423.06
2022-11-19T18:22:25.522Z,96426.09
2022-11-19T18:24:28.437Z,96423.84
2022-11-19T18:26:32.681Z,96421.81
2022-11-19T18:28:35.469Z,96427.31
2022-11-19T18:30:38.655Z,96432.47
2022-11-19T18:32:41.830Z,96431.28
2022-11-19T18:34:45.304Z,96433.28
2022-11-19T18:36:48.239Z,96425.97
2022-11-19T18:38:52.022Z,96432.91
2022-11-19T18:40:54.839Z,96439.41
2022-11-19T18:43:16.541Z,96436.34
2022-11-19T18:45:19.317Z,96439.41
2022-11-19T18:47:24.425Z,96445.72
2022-11-19T18:49:27.315Z,96446.53
2022-11-19T18:51:32.347Z,96455.13
2022-11-19T18:53:35.302Z,96446.38
2022-11-19T18:55:38.467Z,96448.22
2022-11-19T18:57:41.156Z,96462.28
2022-11-19T18:59:45.304Z,96451.69
2022-11-19T19:01:48.334Z,96453.31
2022-11-19T19:03:52.999Z,96460.00
2022-11-19T19:05:55.889Z,96457.78
2022-11-19T19:07:58.780Z,96460.22
2022-11-19T19:10:01.517Z,96461.03
2022-11-19T19:12:18.185Z,96455.66
2022-11-19T19:14:21.023Z,96465.44
2022-11-19T19:16:26.005Z,96464.84
2022-11-19T19:18:28.731Z,96465.47
2022-11-19T19:20:33.639Z,96464.88
2022-11-19T19:22:36.480Z,96466.50
2022-11-19T19:24:42.679Z,96471.63
2022-11-19T19:26:45.551Z,96469.81
2022-11-19T19:28:51.525Z,96476.31
2022-11-19T19:30:58.614Z,96473.19
2022-11-19T19:33:02.666Z,96470.75
2022-11-19T19:35:06.196Z,96474.81
2022-11-19T19:37:08.974Z,96473.81
2022-11-19T19:39:11.792Z,96473.16
2022-11-19T19:41:18.864Z,96479.50
2022-11-19T19:43:21.692Z,96479.28
2022-11-19T19:45:24.612Z,96481.94
2022-11-19T19:47:27.342Z,96480.09
2022-11-19T19:49:35.918Z,96483.19
2022-11-19T19:51:41.483Z,96483.78
2022-11-19T19:53:44.759Z,96479.31
2022-11-19T19:55:47.504Z,96479.53
2022-11-19T19:57:50.190Z,96484.44
2022-11-19T19:59:53.015Z,96481.78
2022-11-19T20:01:58.132Z,96478.94
2022-11-19T20:04:02.618Z,96482.38
2022-11-19T20:06:08.829Z,96476.66
2022-11-19T20:08:11.690Z,96485.84
2022-11-19T20:10:14.693Z,96480.53
2022-11-19T20:12:17.696Z,96483.41
2022-11-19T20:14:20.470Z,96480.53
2022-11-19T20:16:25.646Z,96483.34
2022-11-19T20:18:28.692Z,96480.47
2022-11-19T20:20:31.429Z,96491.91
2022-11-19T20:22:35.617Z,96490.50
2022-11-19T20:24:38.435Z,96492.09
2022-11-19T20:26:42.607Z,96497.84
2022-11-19T20:28:45.699Z,96495.56
2022-11-19T20:30:48.425Z,96494.75
2022-11-19T20:32:51.157Z,96497.56
2022-11-19T20:34:53.996Z,96500.84
2022-11-19T20:36:57.839Z,96502.63
2022-11-19T20:39:02.106Z,96504.03
2022-11-19T20:41:07.245Z,96509.09
2022-11-19T20:43:27.879Z,96511.34
2022-11-19T20:45:30.717Z,96504.00
2022-11-19T20:47:33.483Z,96507.47
2022-11-19T20:49:38.051Z,96512.56
2022-11-19T20:51:41.829Z,96510.72
2022-11-19T20:53:44.699Z,96514.41
2022-11-19T20:56:04.735Z,96512.38
2022-11-19T20:58:08.205Z,96515.03
2022-11-19T21:00:13.190Z,96514.59
2022-11-19T21:02:16.117Z,96517.63
2022-11-19T21:04:19.088Z,96514.97
2022-11-19T21:06:22.031Z,96519.47
2022-11-19T21:08:24.782Z,96527.22
2022-11-19T21:10:27.691Z,96529.66
2022-11-19T21:12:31.941Z,96527.81
2022-11-19T21:14:34.698Z,96524.34
2022-11-19T21:16:37.835Z,96529.66
2022-11-19T21:18:42.566Z,96524.34
2022-11-19T21:20:45.321Z,96529.88
2022-11-19T21:22:48.320Z,96528.03
2022-11-19T21:24:51.137Z,96537.00
2022-11-19T21:26:53.899Z,96531.94
2022-11-19T21:28:59.860Z,96536.19
2022-11-19T21:31:03.026Z,96539.66
2022-11-19T21:33:05.781Z,96540.69
2022-11-19T21:35:09.068Z,96535.22
2022-11-19T21:37:12.380Z,96549.91
2022-11-19T21:39:16.406Z,96546.44
2022-11-19T21:41:19.421Z,96545.03
2022-11-19T21:43:22.039Z,96548.72
2022-11-19T21:45:26.131Z,96541.75
2022-11-19T21:47:29.079Z,96543.00
2022-11-19T21:49:31.942Z,96544.63
2022-11-19T21:51:34.814Z,96548.28
2022-11-19T21:53:37.551Z,96551.38
2022-11-19T21:55:42.818Z,96544.03
2022-11-19T21:57:45.489Z,96536.28
2022-11-19T21:59:48.350Z,96540.78
2022-11-19T22:01:54.860Z,96541.59
2022-11-19T22:03:57.847Z,96545.25
2022-11-19T22:06:01.500Z,96544.44
2022-11-19T22:08:04.629Z,96550.19
2022-11-19T22:10:08.039Z,96550.38
